This is the latest recevied weather packets stored in our database for station/object M0HPP-13. If no packets are shown the sender has not sent any weather packets the latest 10 day(s).
| Time | Temp. | Humidity | Pressure | Rain* | Wind** | Luminosity | Snow |
|---|---|---|---|---|---|---|---|
| 1777591219 | 8.33° C | 77% | 1020 hPa | 0 mm | - | 0 W/m² | - |
| 1777590619 | 8.33° C | 75% | 1020 hPa | 0 mm | - | 0 W/m² | - |
| 1777590019 | 8.33° C | 76% | 1020 hPa | 0 mm | - | 0 W/m² | - |
| 1777589419 | 8.33° C | 76% | 1020.1 hPa | 0 mm | - | 0 W/m² | - |
| 1777588819 | 7.78° C | 78% | 1020.1 hPa | 0 mm | - | 0 W/m² | - |
| 1777588219 | 8.33° C | 76% | 1020.1 hPa | 0 mm | - | 0 W/m² | - |
| 1777587619 | 7.78° C | 80% | 1020.2 hPa | 0 mm | - | 0 W/m² | - |
| 1777587019 | 7.78° C | 81% | 1020.1 hPa | 0 mm | - | 0 W/m² | - |
| 1777586419 | 7.78° C | 79% | 1020.1 hPa | 0 mm | - | 0 W/m² | - |
| 1777585819 | 8.89° C | 74% | 1020.2 hPa | 0 mm | - | 0 W/m² | - |
| 1777584019 | 8.33° C | 77% | 1020.2 hPa | 0 mm | - | 0 W/m² | - |
| 1777583419 | 8.89° C | 74% | 1020.2 hPa | 0 mm | - | 0 W/m² | - |
| 1777582819 | 9.44° C | 74% | 1020.1 hPa | 0 mm | - | 0 W/m² | - |
| 1777582219 | 9.44° C | 75% | 1020 hPa | 0 mm | - | 0 W/m² | - |
| 1777581619 | 9.44° C | 74% | 1020.1 hPa | 0 mm | - | 0 W/m² | - |
| 1777581019 | 10° C | 71% | 1020.1 hPa | 0 mm | - | 0 W/m² | - |
| 1777580419 | 11.67° C | 67% | 1020 hPa | 0 mm | - | 2 W/m² | - |
| 1777579819 | 11.67° C | 66% | 1019.9 hPa | 0 mm | - | 4 W/m² | - |
| 1777579219 | 12.22° C | 64% | 1019.8 hPa | 0 mm | - | 6 W/m² | - |
| 1777578619 | 12.78° C | 62% | 1019.8 hPa | 0 mm | - | 9 W/m² | - |
| 1777578019 | 13.33° C | 58% | 1019.8 hPa | 0 mm | - | 12 W/m² | - |
| 1777577419 | 13.89° C | 56% | 1019.7 hPa | 0 mm | - | 16 W/m² | - |
| 1777576819 | 13.89° C | 55% | 1019.7 hPa | 0 mm | - | 20 W/m² | - |
| 1777576219 | 14.44° C | 55% | 1019.7 hPa | 0 mm | - | 29 W/m² | - |
| 1777575619 | 13.89° C | 57% | 1019.5 hPa | 0 mm | - | 50 W/m² | - |
* Rain latest hour (hover to see other rain measurements)
** Current wind speed in m/s (hover to see current wind gust speed)